Time;durP1;ratioP1;P1;durP2;ratioP2;P2;SDS_P1;SDS_P2;PMS_P1;PMS_P2;Temp;Humidity;BMP_temperature;BMP_pressure;BME280_temperature;BME280_humidity;BME280_pressure;Samples;Min_cycle;Max_cycle;Signal;HPM_P1;HPM_P2
2021/03/03 00:01:42;;;;;;;1.65;1.05;;;17.30;37.60;;;;;;4805781;29;20247;-82
2021/03/03 00:04:23;;;;;;;2.08;0.90;;;17.30;37.50;;;;;;4835657;29;20278;-82
2021/03/03 00:07:26;;;;;;;1.00;0.77;;;17.30;37.50;;;;;;4805934;29;20221;-81
2021/03/03 00:10:10;;;;;;;2.03;0.90;;;17.30;37.60;;;;;;4835784;29;20162;-84
2021/03/03 00:12:42;;;;;;;2.25;1.15;;;17.30;37.50;;;;;;4858187;29;20184;-82
2021/03/03 00:15:15;;;;;;;2.00;0.90;;;17.30;37.60;;;;;;4935433;29;20190;-82
2021/03/03 00:18:03;;;;;;;2.30;1.02;;;17.30;37.50;;;;;;4932906;29;20155;-82
2021/03/03 00:20:45;;;;;;;1.52;0.90;;;17.30;37.60;;;;;;4932503;29;20174;-83
2021/03/03 00:23:21;;;;;;;2.92;1.20;;;17.30;37.70;;;;;;4933066;29;20188;-81
2021/03/03 00:26:14;;;;;;;1.50;1.10;;;17.30;37.60;;;;;;4916958;29;20213;-82
2021/03/03 00:29:07;;;;;;;1.80;0.90;;;17.30;37.70;;;;;;4949602;29;20154;-81
2021/03/03 00:32:00;;;;;;;2.00;1.15;;;17.30;37.70;;;;;;4933020;29;20162;-82
2021/03/03 00:38:05;;;;;;;4.25;1.10;;;17.30;37.80;;;;;;4948555;29;20165;-82
2021/03/03 00:40:56;;;;;;;1.70;1.00;;;17.30;37.80;;;;;;4933084;29;20170;-81
2021/03/03 00:43:58;;;;;;;2.30;1.13;;;17.30;37.80;;;;;;4918819;29;20177;-82
2021/03/03 00:46:43;;;;;;;1.23;0.90;;;17.20;37.80;;;;;;4934889;29;20158;-83
2021/03/03 00:49:49;;;;;;;2.15;1.13;;;17.30;37.80;;;;;;4932478;29;20297;-82
2021/03/03 00:52:16;;;;;;;2.10;1.10;;;17.30;37.80;;;;;;4874324;29;20183;-82
2021/03/03 00:54:56;;;;;;;1.60;1.00;;;17.30;37.80;;;;;;4889800;29;20195;-83
2021/03/03 01:01:20;;;;;;;1.55;0.95;;;17.30;37.80;;;;;;4834654;29;20349;-82
2021/03/03 01:04:07;;;;;;;1.75;0.88;;;17.30;37.80;;;;;;4819604;29;20286;-82
2021/03/03 01:06:51;;;;;;;2.35;1.30;;;17.30;37.90;;;;;;4834696;29;20233;-82
2021/03/03 01:09:18;;;;;;;1.90;1.02;;;17.20;37.90;;;;;;4834918;29;20666;-82
2021/03/03 01:11:50;;;;;;;1.33;1.00;;;17.30;37.90;;;;;;4834707;29;20197;-83
2021/03/03 01:14:38;;;;;;;1.75;1.08;;;17.30;37.90;;;;;;4819948;29;20193;-82
2021/03/03 01:17:28;;;;;;;2.42;1.17;;;17.30;37.90;;;;;;4819833;29;20284;-82
2021/03/03 01:20:06;;;;;;;2.17;1.20;;;17.30;37.90;;;;;;4834981;29;20166;-82
2021/03/03 01:22:45;;;;;;;1.58;1.00;;;17.30;38.00;;;;;;4834833;29;20205;-82
2021/03/03 01:25:44;;;;;;;3.03;1.20;;;17.20;37.90;;;;;;4834711;29;20201;-83
2021/03/03 01:28:20;;;;;;;2.60;1.02;;;17.20;38.00;;;;;;4816676;29;20239;-82
2021/03/03 01:31:01;;;;;;;1.60;1.00;;;17.20;38.00;;;;;;4856230;29;20184;-82
2021/03/03 01:33:54;;;;;;;2.30;1.00;;;17.20;38.00;;;;;;4856089;29;20197;-82
2021/03/03 01:36:59;;;;;;;1.83;1.00;;;17.20;38.10;;;;;;4896062;29;20182;-82
2021/03/03 01:39:55;;;;;;;1.70;0.80;;;17.20;38.10;;;;;;4871331;29;20181;-83
2021/03/03 01:42:41;;;;;;;3.08;1.20;;;17.20;38.00;;;;;;4871678;29;20225;-82
2021/03/03 01:45:21;;;;;;;1.40;0.75;;;17.20;38.00;;;;;;4870628;29;20196;-82
2021/03/03 01:47:56;;;;;;;1.98;1.05;;;17.20;38.10;;;;;;4871226;29;20224;-82
2021/03/03 01:51:23;;;;;;;3.13;1.17;;;17.20;38.10;;;;;;4855830;29;20187;-82
2021/03/03 01:54:10;;;;;;;1.75;1.00;;;17.20;38.10;;;;;;4869600;29;20169;-82
2021/03/03 01:56:49;;;;;;;2.42;0.90;;;17.20;38.10;;;;;;4840280;29;20188;-83
2021/03/03 01:59:54;;;;;;;2.72;0.90;;;17.20;38.20;;;;;;4856762;29;20258;-82
2021/03/03 02:02:47;;;;;;;1.27;0.77;;;17.20;38.20;;;;;;4786670;29;20211;-82
2021/03/03 02:05:20;;;;;;;3.13;1.10;;;17.20;38.20;;;;;;4799843;29;20256;-82
2021/03/03 02:08:11;;;;;;;1.77;1.00;;;17.20;38.20;;;;;;4801536;29;20194;-82
2021/03/03 02:14:07;;;;;;;2.70;1.10;;;17.20;38.30;;;;;;4823919;29;20251;-82
2021/03/03 02:16:54;;;;;;;1.30;0.80;;;17.20;38.40;;;;;;4825517;29;20169;-82
2021/03/03 02:19:59;;;;;;;1.98;1.05;;;17.10;38.30;;;;;;4839858;29;20195;-83
2021/03/03 02:23:05;;;;;;;1.52;0.90;;;17.10;38.40;;;;;;4786935;30;20183;-82
2021/03/03 02:25:48;;;;;;;0.77;0.65;;;17.10;38.40;;;;;;4800455;30;20223;-82
2021/03/03 02:28:39;;;;;;;1.33;1.00;;;17.10;38.40;;;;;;4803909;29;20173;-82
2021/03/03 02:31:22;;;;;;;2.90;1.10;;;17.10;39.10;;;;;;4768217;30;20192;-83
2021/03/03 02:34:00;;;;;;;1.98;1.00;;;17.10;38.40;;;;;;4754248;30;20191;-82
2021/03/03 02:36:38;;;;;;;2.60;1.00;;;17.10;38.50;;;;;;4738499;30;20225;-83
2021/03/03 02:42:55;;;;;;;3.08;1.00;;;17.10;38.50;;;;;;4836184;29;20177;-83
2021/03/03 02:45:48;;;;;;;1.40;1.00;;;17.10;38.50;;;;;;4821741;29;20228;-82
2021/03/03 02:48:40;;;;;;;1.58;1.02;;;17.10;38.50;;;;;;4821340;29;20250;-82
2021/03/03 02:52:05;;;;;;;3.38;0.93;;;17.10;38.60;;;;;;4821956;29;20163;-83
2021/03/03 02:58:54;;;;;;;1.90;1.20;;;17.10;38.70;;;;;;4773210;30;20321;-83
2021/03/03 03:01:31;;;;;;;1.52;0.90;;;17.00;38.70;;;;;;4800405;30;20195;-82
2021/03/03 03:04:35;;;;;;;2.15;0.80;;;17.10;38.60;;;;;;4784433;30;20311;-83
2021/03/03 03:07:29;;;;;;;2.05;1.00;;;17.10;38.70;;;;;;4755499;29;20284;-83
2021/03/03 03:10:15;;;;;;;2.20;0.93;;;17.00;38.70;;;;;;4836319;29;20186;-84
2021/03/03 03:12:57;;;;;;;1.73;0.93;;;17.00;38.70;;;;;;4805900;29;20197;-82
2021/03/03 03:16:02;;;;;;;2.42;1.13;;;17.10;38.80;;;;;;4820888;29;20193;-82
2021/03/03 03:19:00;;;;;;;1.48;0.95;;;17.10;38.70;;;;;;4819813;29;20223;-82
2021/03/03 03:25:20;;;;;;;4.13;1.48;;;17.00;38.70;;;;;;4777005;30;20303;-83
2021/03/03 03:28:25;;;;;;;2.22;1.15;;;17.00;38.80;;;;;;4767058;30;20180;-82
2021/03/03 03:31:21;;;;;;;2.25;1.20;;;17.00;38.80;;;;;;4781647;30;20232;-82
2021/03/03 03:34:02;;;;;;;1.13;0.88;;;17.00;38.80;;;;;;4799213;29;20196;-82
2021/03/03 03:36:46;;;;;;;2.75;1.00;;;17.00;38.70;;;;;;4853803;29;20185;-82
2021/03/03 03:39:29;;;;;;;1.50;1.05;;;17.10;38.90;;;;;;4869770;29;20185;-82
2021/03/03 03:42:27;;;;;;;3.35;1.23;;;17.00;38.80;;;;;;4854272;29;20166;-83
2021/03/03 03:44:53;;;;;;;3.08;0.88;;;17.00;38.80;;;;;;4853892;29;20193;-83
2021/03/03 03:47:39;;;;;;;3.72;1.00;;;17.00;38.80;;;;;;4853765;29;20207;-82
2021/03/03 03:50:14;;;;;;;3.50;1.05;;;17.00;38.80;;;;;;4838452;29;20199;-82
2021/03/03 03:52:47;;;;;;;1.38;0.90;;;17.00;38.90;;;;;;4838890;29;20193;-82
2021/03/03 03:55:38;;;;;;;1.63;0.93;;;17.00;38.90;;;;;;4854378;29;20161;-83
2021/03/03 03:58:30;;;;;;;2.30;1.00;;;17.00;38.80;;;;;;4870192;29;20189;-82
2021/03/03 04:01:21;;;;;;;2.42;1.00;;;17.00;38.90;;;;;;4932118;29;20173;-84
2021/03/03 04:04:17;;;;;;;2.65;0.90;;;17.00;38.90;;;;;;4931887;29;20573;-82
2021/03/03 04:07:20;;;;;;;1.38;0.95;;;17.00;39.10;;;;;;4931800;29;20214;-82
2021/03/03 04:09:51;;;;;;;2.80;0.90;;;16.90;39.10;;;;;;4842181;29;20283;-83
2021/03/03 04:12:44;;;;;;;3.50;0.77;;;17.00;39.10;;;;;;4856965;29;20176;-83
2021/03/03 04:15:20;;;;;;;1.20;0.80;;;17.00;39.00;;;;;;4872146;29;20188;-82
2021/03/03 04:18:08;;;;;;;1.10;0.70;;;17.00;39.10;;;;;;4841837;29;20257;-83
2021/03/03 04:20:47;;;;;;;2.13;1.00;;;17.00;39.10;;;;;;4857069;29;20248;-82
2021/03/03 04:27:40;;;;;;;1.95;0.98;;;17.00;39.10;;;;;;4872365;29;20243;-82
2021/03/03 04:34:15;;;;;;;1.40;0.95;;;16.90;39.10;;;;;;4871269;29;20176;-82
2021/03/03 04:36:55;;;;;;;1.75;0.90;;;16.90;39.20;;;;;;4786827;29;20194;-82
2021/03/03 04:39:34;;;;;;;2.75;1.10;;;16.90;39.20;;;;;;4801907;29;20202;-82
2021/03/03 04:43:05;;;;;;;;;;;;;;;;;;;;;
2021/03/03 04:49:22;;;;;;;1.67;1.00;;;16.90;39.20;;;;;;4852711;29;20723;-82
2021/03/03 04:52:15;;;;;;;2.25;0.93;;;17.00;39.20;;;;;;4866234;29;20224;-82
2021/03/03 05:08:31;;;;;;;1.80;0.90;;;17.10;38.90;;;;;;4795280;30;20315;-82
2021/03/03 05:11:40;;;;;;;1.55;0.80;;;17.10;38.90;;;;;;4782480;30;20240;-82
2021/03/03 05:58:23;;;;;;;1.02;0.80;;;17.10;38.90;;;;;;4874890;29;20179;-82
2021/03/03 06:01:00;;;;;;;0.88;0.80;;;17.10;38.90;;;;;;4857957;29;20185;-85
2021/03/03 06:03:49;;;;;;;0.82;0.80;;;17.10;39.00;;;;;;4841144;29;20173;-83
2021/03/03 06:06:15;;;;;;;1.70;0.85;;;17.10;39.00;;;;;;4855790;29;20205;-83
2021/03/03 06:08:41;;;;;;;1.17;0.98;;;17.10;38.90;;;;;;4855285;29;20226;-83
2021/03/03 06:11:15;;;;;;;1.67;0.90;;;17.10;38.90;;;;;;4867454;29;20193;-83
2021/03/03 06:13:42;;;;;;;1.52;0.95;;;17.20;38.90;;;;;;4914977;29;20608;-82
2021/03/03 06:16:08;;;;;;;1.83;0.95;;;17.20;38.80;;;;;;4946125;29;20154;-83
2021/03/03 06:18:34;;;;;;;1.30;0.90;;;17.10;38.90;;;;;;4931368;29;20189;-83
2021/03/03 06:20:59;;;;;;;2.13;1.02;;;17.10;38.90;;;;;;4931511;29;20169;-82
2021/03/03 06:23:30;;;;;;;1.92;0.70;;;17.10;38.90;;;;;;4916402;29;20158;-86
2021/03/03 06:25:58;;;;;;;1.38;1.05;;;17.10;38.90;;;;;;4916455;29;20237;-83
2021/03/03 06:28:41;;;;;;;1.15;0.70;;;17.10;38.90;;;;;;4948568;29;20155;-83
2021/03/03 06:31:34;;;;;;;1.17;0.77;;;17.10;38.90;;;;;;4931997;29;20186;-82
2021/03/03 06:34:19;;;;;;;1.63;0.70;;;17.20;38.90;;;;;;4932485;29;20166;-83
2021/03/03 06:37:02;;;;;;;1.55;1.00;;;17.20;38.90;;;;;;4916148;29;20199;-83
2021/03/03 06:39:35;;;;;;;1.38;0.93;;;17.20;38.70;;;;;;4949721;29;20170;-83
2021/03/03 06:42:05;;;;;;;1.00;0.90;;;17.20;38.80;;;;;;4916723;29;20165;-83
2021/03/03 06:44:50;;;;;;;1.00;0.70;;;17.10;38.90;;;;;;4930920;29;20223;-83
2021/03/03 06:47:16;;;;;;;1.73;1.10;;;17.20;38.60;;;;;;4914845;29;20206;-82
2021/03/03 06:49:42;;;;;;;1.20;0.73;;;17.20;38.70;;;;;;4913386;29;20554;-82
2021/03/03 06:52:08;;;;;;;1.88;0.90;;;17.20;38.70;;;;;;4910004;29;20154;-83
2021/03/03 06:54:36;;;;;;;3.85;0.80;;;17.20;38.80;;;;;;4894480;29;20193;-82
2021/03/03 06:57:08;;;;;;;2.17;1.00;;;17.20;38.70;;;;;;4909028;29;20652;-82
2021/03/03 06:59:35;;;;;;;1.33;0.88;;;17.20;38.70;;;;;;4898093;29;20565;-83
2021/03/03 07:02:08;;;;;;;3.15;0.88;;;17.20;38.90;;;;;;4929778;29;20161;-82
2021/03/03 07:04:36;;;;;;;1.60;0.95;;;17.20;38.70;;;;;;4929146;29;20257;-82
2021/03/03 07:07:11;;;;;;;1.23;0.73;;;17.20;38.80;;;;;;4898069;29;20544;-83
2021/03/03 07:09:45;;;;;;;1.30;0.90;;;17.30;38.70;;;;;;4913004;29;20221;-82
2021/03/03 07:12:19;;;;;;;2.47;0.75;;;17.20;38.80;;;;;;4928131;29;20182;-82
2021/03/03 07:14:55;;;;;;;2.45;1.00;;;17.20;38.90;;;;;;4929189;29;20177;-83
2021/03/03 07:17:35;;;;;;;1.52;0.90;;;17.30;38.90;;;;;;4913509;29;20540;-83
2021/03/03 07:20:11;;;;;;;1.17;0.90;;;17.30;38.90;;;;;;4945495;29;20162;-83
2021/03/03 07:22:38;;;;;;;0.93;0.82;;;17.20;39.10;;;;;;4927216;29;20169;-82
2021/03/03 07:25:08;;;;;;;0.98;0.80;;;17.20;39.20;;;;;;4926969;29;20341;-83
2021/03/03 07:27:43;;;;;;;1.55;1.05;;;17.30;39.30;;;;;;4944123;29;20159;-82
2021/03/03 07:30:12;;;;;;;2.05;0.88;;;17.40;39.10;;;;;;4911151;29;20225;-82
2021/03/03 07:32:38;;;;;;;1.25;0.73;;;17.50;38.80;;;;;;4927759;29;20545;-83
2021/03/03 07:35:05;;;;;;;1.13;1.02;;;17.40;38.80;;;;;;4913422;29;20166;-83
2021/03/03 07:37:35;;;;;;;1.38;0.93;;;17.40;38.90;;;;;;4897642;29;20182;-82
2021/03/03 07:40:04;;;;;;;2.22;0.90;;;17.40;38.70;;;;;;4898243;29;20597;-82
2021/03/03 07:42:30;;;;;;;1.33;0.85;;;17.40;38.80;;;;;;4913480;29;20595;-82
2021/03/03 07:44:57;;;;;;;1.10;0.70;;;17.40;38.70;;;;;;4911931;29;20194;-82
2021/03/03 07:47:25;;;;;;;1.77;0.90;;;17.40;38.70;;;;;;4927523;29;20194;-82
2021/03/03 07:49:54;;;;;;;0.73;0.70;;;17.40;38.70;;;;;;4912388;29;20166;-82
2021/03/03 07:52:20;;;;;;;1.35;0.90;;;17.50;38.70;;;;;;4930087;29;20165;-82
2021/03/03 07:54:46;;;;;;;1.25;0.82;;;17.40;38.70;;;;;;4913833;29;20166;-82
2021/03/03 07:57:13;;;;;;;1.10;0.88;;;17.40;38.80;;;;;;4914930;29;20170;-82
2021/03/03 07:59:42;;;;;;;1.33;0.90;;;17.40;38.70;;;;;;4930195;29;20158;-82
2021/03/03 08:02:10;;;;;;;1.13;0.85;;;17.50;38.60;;;;;;4917140;29;20158;-83
2021/03/03 08:04:40;;;;;;;0.85;0.57;;;17.40;38.70;;;;;;4918987;29;20209;-83
2021/03/03 08:07:32;;;;;;;1.65;1.00;;;17.40;38.80;;;;;;4917944;29;20178;-83
2021/03/03 08:10:22;;;;;;;1.52;1.05;;;17.40;38.80;;;;;;4891138;29;20188;-83
2021/03/03 08:13:15;;;;;;;1.10;1.00;;;17.40;38.90;;;;;;4891741;29;20555;-82
2021/03/03 08:15:46;;;;;;;1.00;0.57;;;17.40;38.90;;;;;;4876005;29;20192;-83
2021/03/03 08:18:23;;;;;;;1.00;0.80;;;17.40;38.80;;;;;;4876124;29;20559;-83
2021/03/03 08:20:52;;;;;;;1.42;1.00;;;17.40;38.70;;;;;;4889979;29;20282;-83
2021/03/03 08:23:39;;;;;;;2.05;0.95;;;17.50;38.70;;;;;;4876059;29;20247;-82
2021/03/03 08:26:05;;;;;;;0.82;0.70;;;17.40;38.80;;;;;;4897832;29;20176;-83
2021/03/03 08:28:31;;;;;;;1.38;0.80;;;17.40;38.80;;;;;;4882467;29;20176;-83
2021/03/03 08:31:12;;;;;;;1.15;0.77;;;17.40;38.70;;;;;;4892061;29;20183;-83
2021/03/03 08:33:52;;;;;;;0.70;0.70;;;17.50;38.80;;;;;;4892640;29;20184;-84
2021/03/03 08:36:25;;;;;;;0.57;0.57;;;17.50;38.70;;;;;;4894984;29;20195;-83
2021/03/03 08:38:54;;;;;;;1.08;0.77;;;17.40;38.80;;;;;;4910820;29;20156;-84
2021/03/03 08:41:25;;;;;;;1.58;0.93;;;17.50;38.60;;;;;;4910687;29;20203;-84
2021/03/03 08:44:03;;;;;;;1.58;0.88;;;17.50;38.60;;;;;;4910492;29;22119;-84
2021/03/03 08:46:31;;;;;;;0.80;0.80;;;17.50;38.70;;;;;;4924797;29;20281;-84
2021/03/03 08:48:59;;;;;;;0.98;0.90;;;17.60;38.70;;;;;;4965244;29;20162;-84
2021/03/03 08:51:35;;;;;;;1.45;0.90;;;17.50;38.70;;;;;;4948973;29;20172;-83
2021/03/03 08:54:08;;;;;;;0.68;0.65;;;17.50;38.60;;;;;;4948596;29;20157;-83
2021/03/03 08:56:44;;;;;;;0.85;0.60;;;17.60;38.60;;;;;;4933415;29;20166;-84
2021/03/03 08:59:34;;;;;;;1.10;0.90;;;17.60;38.60;;;;;;4965831;29;20173;-84
2021/03/03 09:02:38;;;;;;;1.10;1.00;;;17.60;38.60;;;;;;4966320;29;20227;-84
2021/03/03 09:05:07;;;;;;;1.80;0.90;;;17.60;38.50;;;;;;4948374;29;20193;-84
2021/03/03 09:07:33;;;;;;;0.88;0.85;;;17.70;38.50;;;;;;4949001;28;20237;-83
2021/03/03 09:10:03;;;;;;;1.75;0.95;;;17.60;38.40;;;;;;4932117;29;20206;-83
2021/03/03 09:12:32;;;;;;;3.63;0.90;;;17.60;38.50;;;;;;4933361;29;20162;-82
2021/03/03 09:15:00;;;;;;;1.10;0.85;;;17.70;38.50;;;;;;4933763;29;20154;-83
2021/03/03 09:17:30;;;;;;;1.17;0.80;;;17.70;38.50;;;;;;4917866;29;20525;-83
2021/03/03 09:20:00;;;;;;;1.15;0.70;;;17.80;38.30;;;;;;4917583;29;20161;-83
2021/03/03 09:22:28;;;;;;;1.02;0.93;;;17.80;38.20;;;;;;4933428;29;20161;-83
2021/03/03 09:25:19;;;;;;;1.10;0.90;;;17.80;38.30;;;;;;4950317;29;20196;-83
2021/03/03 09:27:58;;;;;;;0.80;0.80;;;17.60;38.40;;;;;;4934231;29;20158;-82
2021/03/03 09:30:48;;;;;;;1.20;0.90;;;17.70;38.30;;;;;;4949847;29;20161;-82
2021/03/03 09:33:14;;;;;;;2.58;1.10;;;17.70;38.40;;;;;;4948288;29;20189;-82
2021/03/03 09:35:41;;;;;;;2.05;1.00;;;17.70;38.40;;;;;;4933993;29;20170;-83
2021/03/03 09:38:11;;;;;;;1.55;0.90;;;17.70;38.50;;;;;;4933143;29;20176;-83
2021/03/03 09:40:38;;;;;;;2.47;0.73;;;17.70;38.50;;;;;;4949829;29;20192;-82
2021/03/03 09:43:06;;;;;;;4.10;1.23;;;17.70;38.50;;;;;;4933281;29;20619;-84
2021/03/03 09:45:32;;;;;;;5.10;1.08;;;17.80;38.50;;;;;;4950106;29;20197;-83
2021/03/03 09:47:58;;;;;;;4.95;1.08;;;17.80;38.40;;;;;;4917854;29;20652;-84
2021/03/03 09:50:34;;;;;;;1.50;0.80;;;17.80;38.50;;;;;;4918001;29;20161;-84
2021/03/03 09:53:00;;;;;;;2.47;0.75;;;17.70;38.70;;;;;;4933475;29;20220;-83
2021/03/03 09:55:28;;;;;;;2.42;1.00;;;17.80;38.50;;;;;;4933476;29;20172;-84
2021/03/03 09:57:58;;;;;;;2.45;1.05;;;17.80;38.30;;;;;;4933993;29;20173;-84
2021/03/03 10:00:25;;;;;;;3.78;1.10;;;17.90;38.20;;;;;;4934382;29;20185;-83
2021/03/03 10:03:16;;;;;;;4.05;1.05;;;18.00;38.10;;;;;;4949335;29;20249;-85
2021/03/03 10:05:43;;;;;;;4.55;1.00;;;17.80;38.30;;;;;;4932970;29;20316;-84
2021/03/03 10:08:10;;;;;;;5.13;1.20;;;17.90;38.40;;;;;;4949482;29;20198;-84
2021/03/03 10:10:37;;;;;;;3.05;1.00;;;17.80;38.50;;;;;;4933574;29;20166;-84
2021/03/03 10:13:05;;;;;;;8.52;1.27;;;17.80;38.50;;;;;;4917943;29;20173;-84
2021/03/03 10:15:36;;;;;;;4.32;0.88;;;17.80;38.60;;;;;;4918905;29;20174;-84
2021/03/03 10:18:23;;;;;;;4.82;1.30;;;17.80;38.60;;;;;;4918764;29;20217;-84
2021/03/03 10:20:53;;;;;;;9.00;1.88;;;17.80;38.60;;;;;;4932220;29;20178;-84
2021/03/03 10:23:26;;;;;;;2.22;1.10;;;17.80;38.50;;;;;;4934108;29;20615;-84
2021/03/03 10:26:40;;;;;;;5.32;1.30;;;17.90;38.40;;;;;;4934489;29;20205;-84
2021/03/03 10:29:50;;;;;;;3.78;1.33;;;17.90;38.50;;;;;;4936036;29;20587;-84
2021/03/03 10:32:20;;;;;;;3.85;1.20;;;17.80;38.60;;;;;;4875569;29;20266;-84
2021/03/03 10:35:19;;;;;;;7.47;1.00;;;18.00;38.50;;;;;;4860818;29;20176;-84
2021/03/03 10:38:15;;;;;;;2.50;1.10;;;18.00;38.30;;;;;;4864346;29;20172;-84
2021/03/03 10:40:57;;;;;;;7.25;1.23;;;18.00;38.40;;;;;;4881965;29;20555;-84
2021/03/03 10:43:56;;;;;;;4.40;1.35;;;18.10;38.30;;;;;;4857107;29;20188;-84
2021/03/03 10:46:23;;;;;;;4.25;1.27;;;18.10;38.40;;;;;;4856556;29;20347;-84
2021/03/03 10:48:51;;;;;;;4.65;1.30;;;18.00;38.40;;;;;;4857231;29;20177;-85
2021/03/03 10:51:20;;;;;;;5.55;1.50;;;18.00;38.50;;;;;;4843477;29;20659;-83
2021/03/03 10:54:02;;;;;;;5.07;1.08;;;18.00;38.50;;;;;;4840073;29;20169;-83
2021/03/03 10:56:33;;;;;;;5.43;1.30;;;18.00;38.40;;;;;;4855291;29;20290;-84
2021/03/03 10:59:05;;;;;;;6.05;1.40;;;18.10;38.40;;;;;;4840981;29;20165;-84
2021/03/03 11:01:53;;;;;;;6.72;1.50;;;18.00;38.50;;;;;;4841312;29;20200;-83
2021/03/03 11:04:19;;;;;;;8.13;1.42;;;18.10;38.40;;;;;;4841140;29;20224;-82
2021/03/03 11:06:50;;;;;;;4.80;1.20;;;18.00;38.50;;;;;;4841419;29;20202;-82
2021/03/03 11:09:38;;;;;;;4.50;1.63;;;18.00;38.60;;;;;;4910999;29;20223;-82
2021/03/03 11:12:07;;;;;;;10.82;1.50;;;18.00;38.60;;;;;;4929328;29;20167;-82
2021/03/03 11:14:35;;;;;;;2.80;1.23;;;18.10;38.30;;;;;;4913923;29;20713;-83
2021/03/03 11:17:01;;;;;;;4.68;1.40;;;18.10;38.40;;;;;;4930407;29;20222;-83
2021/03/03 11:19:29;;;;;;;3.83;1.10;;;18.10;38.40;;;;;;4914632;29;20182;-82
2021/03/03 11:21:55;;;;;;;10.45;1.48;;;18.10;38.40;;;;;;4914091;29;20175;-83
2021/03/03 11:24:21;;;;;;;8.23;1.20;;;18.10;38.30;;;;;;4929912;29;20202;-84
2021/03/03 11:26:47;;;;;;;6.65;1.48;;;18.20;38.30;;;;;;4928420;29;20179;-83
2021/03/03 11:29:14;;;;;;;8.27;1.45;;;18.10;38.50;;;;;;4899880;29;20171;-84
2021/03/03 11:31:41;;;;;;;11.60;2.25;;;18.00;38.60;;;;;;4936771;29;20668;-86
2021/03/03 11:34:31;;;;;;;13.00;1.60;;;18.00;38.70;;;;;;4919942;29;20177;-83
2021/03/03 11:37:00;;;;;;;9.32;1.70;;;18.00;38.70;;;;;;4922124;29;20262;-84
2021/03/03 11:39:27;;;;;;;4.63;1.10;;;18.10;38.50;;;;;;4952915;29;20617;-83
2021/03/03 11:41:53;;;;;;;6.78;1.40;;;18.10;38.50;;;;;;4921258;29;20174;-84
2021/03/03 11:44:19;;;;;;;6.78;1.35;;;18.10;38.50;;;;;;4917276;29;20198;-84
2021/03/03 11:46:52;;;;;;;4.25;1.40;;;18.10;38.60;;;;;;4917945;29;20178;-86
2021/03/03 11:49:30;;;;;;;4.28;1.33;;;18.10;38.60;;;;;;4934745;29;20170;-85
2021/03/03 11:52:03;;;;;;;9.18;1.30;;;18.20;38.50;;;;;;4934007;29;20174;-83
2021/03/03 11:54:29;;;;;;;11.45;1.95;;;18.20;38.50;;;;;;4934089;29;20166;-84
2021/03/03 11:56:57;;;;;;;3.80;1.30;;;18.10;38.50;;;;;;4918685;29;20170;-84
2021/03/03 11:59:26;;;;;;;8.77;1.52;;;18.20;38.50;;;;;;4933877;29;20201;-84
2021/03/03 12:01:55;;;;;;;4.32;1.42;;;18.30;38.40;;;;;;4933245;29;20197;-84
2021/03/03 12:04:20;;;;;;;8.52;2.05;;;18.30;38.20;;;;;;4933065;29;20638;-84
2021/03/03 12:06:51;;;;;;;2.05;1.40;;;18.20;38.40;;;;;;4932595;29;20155;-84
2021/03/03 12:09:18;;;;;;;6.82;1.35;;;18.20;38.50;;;;;;4878298;29;20293;-82
2021/03/03 12:11:44;;;;;;;4.57;1.60;;;18.10;38.60;;;;;;4910249;29;20211;-82
2021/03/03 12:14:10;;;;;;;7.10;1.65;;;18.10;38.70;;;;;;4909771;29;20163;-84
2021/03/03 12:16:36;;;;;;;5.35;1.60;;;18.20;38.50;;;;;;4885038;29;20661;-84
2021/03/03 12:19:02;;;;;;;6.63;1.48;;;18.20;38.50;;;;;;4873790;29;20246;-82
2021/03/03 12:21:28;;;;;;;5.60;1.40;;;18.10;38.60;;;;;;4885224;29;20631;-84
2021/03/03 12:23:53;;;;;;;7.20;1.63;;;18.20;38.50;;;;;;4892503;29;20170;-84
2021/03/03 12:26:21;;;;;;;4.95;1.27;;;18.20;38.40;;;;;;4889753;29;20541;-82
2021/03/03 12:28:48;;;;;;;4.50;1.45;;;18.30;38.40;;;;;;4904407;29;20156;-83
2021/03/03 12:31:17;;;;;;;4.78;1.60;;;18.20;38.50;;;;;;4891676;29;20167;-83
2021/03/03 12:33:42;;;;;;;6.80;1.45;;;18.20;38.50;;;;;;4874117;29;20611;-82
2021/03/03 12:36:09;;;;;;;5.20;1.50;;;18.20;38.50;;;;;;4921609;29;20214;-81
2021/03/03 12:38:35;;;;;;;3.70;1.50;;;18.20;38.50;;;;;;4893405;29;20167;-83
2021/03/03 12:41:02;;;;;;;8.75;1.65;;;18.20;38.40;;;;;;4905287;29;20251;-83
2021/03/03 12:43:33;;;;;;;4.78;1.58;;;18.30;38.40;;;;;;4899276;29;20174;-82
2021/03/03 12:45:59;;;;;;;4.20;1.50;;;18.30;38.20;;;;;;4915484;29;20245;-85
2021/03/03 12:48:25;;;;;;;5.65;1.60;;;18.30;38.30;;;;;;4900735;29;20242;-81
2021/03/03 12:51:01;;;;;;;4.22;1.70;;;18.30;38.30;;;;;;4909009;29;20691;-81
2021/03/03 12:53:27;;;;;;;5.60;1.70;;;18.30;38.30;;;;;;4912482;29;20166;-82
2021/03/03 12:55:53;;;;;;;4.72;1.30;;;18.20;38.30;;;;;;4903280;29;20158;-81
2021/03/03 12:58:19;;;;;;;6.18;1.80;;;18.20;38.30;;;;;;4900609;29;20214;-81
2021/03/03 13:00:46;;;;;;;5.30;1.65;;;18.30;38.30;;;;;;4887961;29;20173;-83
2021/03/03 13:03:13;;;;;;;3.95;1.60;;;18.20;38.40;;;;;;4914578;29;20162;-81
2021/03/03 13:05:39;;;;;;;2.55;1.50;;;18.20;38.40;;;;;;4917265;29;20604;-82
2021/03/03 13:08:05;;;;;;;2.90;1.40;;;18.30;38.40;;;;;;4934556;28;20278;-82
2021/03/03 13:10:32;;;;;;;2.22;1.63;;;18.20;38.40;;;;;;4914731;29;20179;-83
2021/03/03 13:12:59;;;;;;;4.57;1.38;;;18.30;38.30;;;;;;4936088;29;20209;-82
2021/03/03 13:15:25;;;;;;;6.32;2.00;;;18.30;38.30;;;;;;4931358;29;20162;-81
2021/03/03 13:17:52;;;;;;;3.63;1.50;;;18.30;38.20;;;;;;4928813;29;20700;-82
2021/03/03 13:20:30;;;;;;;6.03;1.50;;;18.30;38.30;;;;;;4937031;29;20549;-82
2021/03/03 13:22:56;;;;;;;4.13;1.80;;;18.40;38.20;;;;;;4932018;29;20657;-82
2021/03/03 13:25:23;;;;;;;3.35;1.52;;;18.40;38.30;;;;;;4915885;29;20220;-81
2021/03/03 13:27:53;;;;;;;2.53;1.50;;;18.40;38.20;;;;;;4950374;29;20170;-82
2021/03/03 13:30:21;;;;;;;4.93;1.52;;;18.30;38.30;;;;;;4951700;29;20157;-80
2021/03/03 13:33:02;;;;;;;2.88;1.70;;;18.40;38.20;;;;;;4934991;29;20181;-82
2021/03/03 13:35:35;;;;;;;3.88;1.50;;;18.40;38.20;;;;;;4939494;29;20170;-82
2021/03/03 13:38:04;;;;;;;3.85;1.60;;;18.30;38.30;;;;;;4939170;29;20166;-81
2021/03/03 13:40:31;;;;;;;3.30;1.90;;;18.40;38.30;;;;;;4939673;29;20197;-83
2021/03/03 13:42:57;;;;;;;3.05;1.50;;;18.30;38.40;;;;;;4939112;29;20177;-82
2021/03/03 13:45:27;;;;;;;2.10;1.35;;;18.30;38.30;;;;;;4922119;29;20194;-82
2021/03/03 13:47:57;;;;;;;3.00;1.98;;;18.30;38.30;;;;;;4917210;29;20166;-84
2021/03/03 13:50:23;;;;;;;3.60;1.70;;;18.20;38.50;;;;;;4942902;29;20253;-82
2021/03/03 13:52:50;;;;;;;3.58;1.80;;;18.30;38.50;;;;;;4930668;29;20150;-83
2021/03/03 13:55:16;;;;;;;4.00;1.73;;;18.30;38.40;;;;;;4910505;29;20167;-83
2021/03/03 13:57:43;;;;;;;2.40;1.52;;;18.40;38.40;;;;;;4916146;29;20181;-82
2021/03/03 14:00:09;;;;;;;3.30;1.55;;;18.40;39.10;;;;;;4926209;29;20212;-82
2021/03/03 14:02:35;;;;;;;2.78;1.42;;;18.30;38.40;;;;;;4913719;29;20636;-81
2021/03/03 14:05:05;;;;;;;4.28;1.98;;;18.30;38.50;;;;;;4933296;29;20201;-83
2021/03/03 14:07:31;;;;;;;2.72;1.50;;;18.40;38.50;;;;;;4932922;29;20181;-82
2021/03/03 14:09:57;;;;;;;2.63;1.70;;;18.40;38.40;;;;;;4930296;29;20217;-83
2021/03/03 14:12:23;;;;;;;5.18;1.50;;;18.40;38.30;;;;;;4922471;29;20162;-82
2021/03/03 14:14:49;;;;;;;2.25;1.63;;;18.40;38.50;;;;;;4922639;29;20622;-82
2021/03/03 14:17:14;;;;;;;4.32;1.73;;;18.40;38.40;;;;;;4907954;29;20186;-83
2021/03/03 14:19:44;;;;;;;4.35;1.35;;;18.40;38.40;;;;;;4922248;29;20193;-83
2021/03/03 14:22:12;;;;;;;4.50;1.40;;;18.30;38.50;;;;;;4907022;29;20180;-83
2021/03/03 14:24:38;;;;;;;2.25;1.45;;;18.40;38.50;;;;;;4914533;29;20220;-83
2021/03/03 14:27:04;;;;;;;2.63;1.90;;;18.40;38.40;;;;;;4936973;29;20165;-83
2021/03/03 14:29:30;;;;;;;2.70;1.48;;;18.40;38.30;;;;;;4937108;29;20170;-83
2021/03/03 14:31:56;;;;;;;2.80;1.75;;;18.40;38.50;;;;;;4926600;29;20166;-83
2021/03/03 14:34:22;;;;;;;1.90;1.50;;;18.40;38.30;;;;;;4915588;29;20181;-84
2021/03/03 14:36:49;;;;;;;2.08;1.48;;;18.50;38.20;;;;;;4932970;29;20186;-82
2021/03/03 14:39:16;;;;;;;5.97;1.92;;;18.50;38.20;;;;;;4950817;29;20238;-83
2021/03/03 14:41:44;;;;;;;2.47;1.65;;;18.40;38.20;;;;;;4906163;29;20193;-84
2021/03/03 14:44:10;;;;;;;2.85;1.90;;;18.30;38.50;;;;;;4930564;29;20215;-81
2021/03/03 14:46:38;;;;;;;3.70;1.80;;;18.40;38.40;;;;;;4939462;29;20177;-82
2021/03/03 14:49:03;;;;;;;3.97;1.70;;;18.30;38.50;;;;;;4959750;29;20181;-82
2021/03/03 14:51:30;;;;;;;3.97;1.80;;;18.40;38.50;;;;;;4938457;29;20161;-81
2021/03/03 14:53:56;;;;;;;4.20;1.90;;;18.40;38.50;;;;;;4941090;29;20253;-82
2021/03/03 14:56:23;;;;;;;2.50;1.65;;;18.30;38.50;;;;;;4935842;29;20542;-82
2021/03/03 14:58:50;;;;;;;3.50;1.60;;;18.40;38.50;;;;;;4908280;29;20170;-82
2021/03/03 15:01:25;;;;;;;4.18;1.75;;;18.40;38.30;;;;;;4907537;29;20534;-82
2021/03/03 15:03:54;;;;;;;3.03;1.70;;;18.50;38.40;;;;;;4920976;29;20179;-83
2021/03/03 15:06:20;;;;;;;4.82;1.90;;;18.40;38.40;;;;;;4905603;29;20167;-82